»·PEaware :: N149CD KHND-KVNY

N149CD :: KHND-KVNY

FLIGHT INFORMATION

Flight Status: Arrived
Operator: Privately registered:
United States
More flights under this callsign
Pilot: Nathan E. (30132)
Aircraft: CIRRUS VISIONJET
(SF50)
More flights by this aircraft type
Origin: KHND Henderson
United States
Destination: KVNY Van Nuys
United States
More flights between these airports :: More routes between these airports
Route: PALLY6 HEC LYNXX8
File this flight plan on PilotEdge
Remarks:
Altitude:
(Current/Filed)
20,000ft
Speed:
(Current/Filed)
300kts
Departed: 16-Dec-20 03:22 PM
Arrived: 16-Dec-20 04:20 PM
Distance/Time
Traveled:
196nm/0:58
Distance/Time
To Go:
Arrived

Flight Plot

Page will automatically refresh every two minutes.

Flight plan parsing failed; only flown route is shown


Map Options




Map Legend


Flown Route
Filed Route
Departure Airport
Arrival Airport
Navaid (VOR, NDB)
Fix

Horizontal Profiles

Position Reports

Time Latitude Longitude Heading Altitude Ground
Speed
16-Dec-20 14:48 35.978145 -115.137384 0 2408ft 0kts
16-Dec-20 14:49 35.978145 -115.137384 0 2408ft 0kts
16-Dec-20 14:50 35.978145 -115.137384 0 2408ft 0kts
16-Dec-20 14:51 35.978145 -115.137384 0 2408ft 0kts
16-Dec-20 14:52 35.978145 -115.137384 0 2408ft 0kts
16-Dec-20 14:53 35.978145 -115.137384 0 2408ft 0kts
16-Dec-20 14:54 35.978145 -115.137384 0 2408ft 0kts
16-Dec-20 14:55 35.978145 -115.137384 0 2408ft 0kts
16-Dec-20 14:56 35.978145 -115.137384 0 2408ft 0kts
16-Dec-20 14:57 35.978145 -115.137384 0 2408ft 0kts
16-Dec-20 14:58 35.978145 -115.137384 0 2408ft 0kts
16-Dec-20 14:59 35.978145 -115.137384 0 2408ft 0kts
16-Dec-20 15:00 35.978145 -115.137384 0 2408ft 0kts
16-Dec-20 15:01 35.978145 -115.137384 0 2408ft 0kts
16-Dec-20 15:02 35.978145 -115.137384 0 2408ft 0kts
16-Dec-20 15:03 35.978145 -115.137384 0 2408ft 0kts
16-Dec-20 15:04 35.978145 -115.137384 0 2408ft 0kts
16-Dec-20 15:05 35.978145 -115.137384 0 2408ft 0kts
16-Dec-20 15:06 35.978145 -115.137384 0 2408ft 0kts
16-Dec-20 15:07 35.978145 -115.137384 0 2408ft 0kts
16-Dec-20 15:08 35.978145 -115.137384 0 2408ft 0kts
16-Dec-20 15:09 35.978145 -115.137384 0 2408ft 0kts
16-Dec-20 15:10 35.978145 -115.137384 0 2408ft 0kts
16-Dec-20 15:11 35.978145 -115.137384 0 2408ft 0kts
16-Dec-20 15:12 35.978145 -115.137384 0 2408ft 0kts
16-Dec-20 15:13 35.978145 -115.137384 0 2408ft 0kts
16-Dec-20 15:14 35.978149 -115.137384 0 2408ft 0kts
16-Dec-20 15:15 35.976491 -115.136902 181 2416ft 12kts
16-Dec-20 15:16 35.972359 -115.136952 180 2434ft 15kts
16-Dec-20 15:17 35.967693 -115.137011 180 2453ft 16kts
16-Dec-20 15:18 35.963606 -115.137059 181 2468ft 10kts
16-Dec-20 15:19 35.963113 -115.136460 90 2472ft 0kts
16-Dec-20 15:20 35.963110 -115.136307 90 2472ft 5kts
16-Dec-20 15:22 35.976290 -115.135318 1 2521ft 130kts
16-Dec-20 15:23 36.012764 -115.123668 74 3916ft 168kts
16-Dec-20 15:24 36.006656 -115.063791 84 6013ft 193kts
16-Dec-20 15:25 36.005127 -115.004387 132 6122ft 176kts
16-Dec-20 15:26 35.959632 -114.979217 160 7141ft 183kts
16-Dec-20 15:27 35.910519 -114.960571 186 7986ft 188kts
16-Dec-20 15:28 35.868069 -114.995772 220 8691ft 186kts
16-Dec-20 15:29 35.827475 -115.036294 221 9687ft 190kts
16-Dec-20 15:30 35.785974 -115.077677 222 11559ft 197kts
16-Dec-20 15:31 35.752239 -115.128538 247 14064ft 197kts
16-Dec-20 15:32 35.725624 -115.188093 246 16350ft 202kts
16-Dec-20 15:33 35.698216 -115.249218 246 18408ft 207kts
16-Dec-20 15:34 35.663676 -115.309629 233 19026ft 248kts
16-Dec-20 15:34 35.622040 -115.366794 233 19828ft 262kts
16-Dec-20 15:36 35.560638 -115.451096 233 20018ft 303kts
16-Dec-20 15:37 35.502893 -115.530381 231 20017ft 316kts
16-Dec-20 15:38 35.442976 -115.610537 231 20016ft 320kts
16-Dec-20 15:38 35.392763 -115.677573 231 20019ft 322kts
16-Dec-20 15:40 35.321833 -115.772036 231 20010ft 323kts
16-Dec-20 15:41 35.261053 -115.852771 231 20001ft 323kts
16-Dec-20 15:41 35.210335 -115.919995 231 19993ft 323kts
16-Dec-20 15:42 35.149227 -116.000813 231 19992ft 323kts
16-Dec-20 15:43 35.088235 -116.081287 231 19992ft 323kts
16-Dec-20 15:44 35.027062 -116.161808 231 19993ft 323kts
16-Dec-20 15:45 34.966050 -116.241924 231 20006ft 323kts
16-Dec-20 15:46 34.904872 -116.322076 231 20010ft 323kts
16-Dec-20 15:47 34.843590 -116.402172 231 19998ft 323kts
16-Dec-20 15:48 34.796256 -116.489342 264 20009ft 308kts
16-Dec-20 15:49 34.784464 -116.592550 266 19969ft 308kts
16-Dec-20 15:50 34.774247 -116.696003 266 19972ft 308kts
16-Dec-20 15:51 34.763993 -116.799526 266 19971ft 308kts
16-Dec-20 15:52 34.753549 -116.904109 266 19510ft 320kts
16-Dec-20 15:53 34.742576 -117.012751 266 18707ft 327kts
16-Dec-20 15:54 34.731349 -117.123011 266 17898ft 330kts
16-Dec-20 15:55 34.719958 -117.233971 266 17086ft 331kts
16-Dec-20 15:56 34.708398 -117.345475 266 16271ft 332kts
16-Dec-20 15:57 34.696779 -117.456550 266 15460ft 333kts
16-Dec-20 15:58 34.685011 -117.568045 266 14648ft 333kts
16-Dec-20 15:59 34.673109 -117.679739 265 14004ft 329kts
16-Dec-20 16:00 34.661459 -117.788197 265 13999ft 320kts
16-Dec-20 16:01 34.649897 -117.894952 265 13883ft 313kts
16-Dec-20 16:02 34.639192 -117.992968 265 13071ft 292kts
16-Dec-20 16:03 34.625280 -118.089717 258 12543ft 292kts
16-Dec-20 16:04 34.604576 -118.184643 258 11824ft 289kts
16-Dec-20 16:05 34.583664 -118.278497 257 10999ft 286kts
16-Dec-20 16:06 34.562853 -118.371289 257 9992ft 282kts
16-Dec-20 16:07 34.542841 -118.460205 257 8990ft 235kts
16-Dec-20 16:08 34.528611 -118.523441 258 8059ft 173kts
16-Dec-20 16:09 34.514786 -118.579813 238 8038ft 180kts
16-Dec-20 16:10 34.464137 -118.580558 172 7769ft 194kts
16-Dec-20 16:11 34.411076 -118.570499 172 7142ft 193kts
16-Dec-20 16:12 34.359488 -118.558787 169 6239ft 177kts
16-Dec-20 16:13 34.312366 -118.546617 164 4871ft 175kts
16-Dec-20 16:14 34.266033 -118.530996 164 3433ft 157kts
16-Dec-20 16:15 34.229239 -118.515702 157 1929ft 132kts
16-Dec-20 16:16 34.199942 -118.506621 173 1823ft 105kts
16-Dec-20 16:17 34.178969 -118.492880 55 1468ft 84kts
16-Dec-20 16:18 34.198600 -118.489341 354 808ft 65kts
16-Dec-20 16:19 34.206600 -118.490751 265 805ft 0kts
16-Dec-20 16:20 34.206268 -118.492538 181 805ft 0kts
16-Dec-20 16:21 34.206268 -118.492538 181 805ft 0kts

Navigation Log

Ident Type
Flight plan parsing failed, navigation log unavailable